ADDS METAR Data INFO
IDs: Format: Raw Decoded Include TAF

Data at: 2253 UTC 22 Jun 2018

KVLD 222153Z 19006KT 10SM FEW029 31/24 A2988 RMK AO2 SLP124 T03060244
KVLD 222053Z 22006KT 10SM CLR 30/24 A2990 RMK AO2 SLP131 60000 T03000244 56022
KVLD 221953Z VRB04KT 10SM CLR 29/25 A2992 RMK AO2 SLP138 T02890250
KVLD 221853Z 00000KT 10SM CLR 24/23 A2994 RMK AO2 RAE16 SLP145 P0000 T02440233
KVLD 221753Z 00000KT 10SM -RA FEW055 FEW080 BKN110 23/22 A2997 RMK AO2 LTG DSNT NE AND E TSE21 SLP154 P0014 60027 T02280222 10306 20217 50007
KVLD 221740Z 00000KT 7SM -RA BKN110 22/22 A2997 RMK AO2 LTG DSNT N-E TSE21 P0014 T02220217
KVLD 221727Z 00000KT 5SM VCTS -RA BR FEW047 SCT100 BKN120 22/22 A2998 RMK AO2 LTG DSNT NE-S TSE21 P0012 T02170217
KVLD 221715Z 00000KT 10SM -TSRA SCT045 BKN110 22/21 A2999 RMK AO2 LTG DSNT N AND NE AND S P0011 T02170211
KVLD 221707Z VRB03KT 2SM -TSRA BR BKN045 BKN070 OVC100 22/21 A2998 RMK AO2 LTG DSNT ALQDS P0011 T02220206
KVLD 221700Z VRB03KT 1/2SM +TSRA FG FEW023 BKN043 OVC050 22/21 A2999 RMK AO2 LTG DSNT ALQDS P0010 T02170211
KVLD 221653Z VRB04G15KT 1SM +TSRA BR FEW026 BKN050 OVC075 22/22 A3000 RMK AO2 LTG DSNT ALQDS RAB44 TSB42 PRESRR SLP166 P0010 T02220217
KVLD 221648Z VRB05G21KT 2 1/2SM TSRA BR FEW023 BKN048 OVC080 23/22 A3000 RMK AO2 LTG DSNT SW-N RAB44 TSB42 PRESRR P0003
KVLD 221626Z VRB06KT 10SM VCTS FEW031 SCT060 31/25 A2996 RMK AO2 LTG DSNT SW-NW T03060250
KVLD 221553Z VRB04KT 10SM FEW019 SCT026 30/25 A2995 RMK AO2 LTG DSNT S-W SLP147 T03000250
KVLD 221453Z VRB03KT 10SM SCT016 SCT021 SCT026 29/26 A2995 RMK AO2 RAB1357E23 SLP149 P0000 60003 T02890256 58001
KVLD 221446Z VRB03KT 10SM SCT016 SCT024 BKN031 29/26 A2995 RMK AO2 RAB1357E23 P0000 T02890256
KVLD 221425Z VRB05KT 10SM BKN016 BKN029 OVC050 27/26 A2996 RMK AO2 RAB1357E23 P0000 T02670256
KVLD 221353Z 00000KT 10SM SCT024 BKN036 BKN075 28/26 A2996 RMK AO2 RAE06 SLP152 P0000 T02780256
KVLD 221329Z 00000KT 10SM BKN026 BKN075 27/25 A2997 RMK AO2 RAE06 P0000 T02670250
KVLD 221253Z VRB03KT 5SM -RA BR SCT025 BKN034 OVC065 25/24 A2997 RMK AO2 RAB28 SLP153 P0003 T02500244
KVLD 221236Z 00000KT 5SM -RA BR SCT025 SCT037 BKN050 25/24 A2997 RMK AO2 RAB28 P0003 T02500239
KVLD 221229Z 00000KT 1 3/4SM RA FEW023 SCT046 OVC055 26/24 A2997 RMK AO2 RAB28 P0003 T02560244
KVLD 221153Z VRB03KT 10SM FEW065 25/23 A2996 RMK AO2 SLP150 70045 T02500233 10250 20233 51021
KVLD 221053Z 00000KT 8SM CLR 24/23 A2994 RMK AO2 SLP145 T02390233
KVLD 220953Z AUTO 23003KT 10SM CLR 23/23 A2992 RMK AO2 SLP136 T02330228
KVLD 220853Z AUTO 00000KT 10SM CLR 24/23 A2989 RMK AO2 SLP129 T02390228 53005
KVLD 220753Z AUTO VRB03KT 10SM CLR 24/23 A2989 RMK AO2 SLP126 T02390228
KVLD 220653Z AUTO VRB03KT 10SM CLR 23/23 A2988 RMK AO2 SLP124 T02330228
KVLD 220553Z AUTO VRB03KT 10SM CLR 23/23 A2988 RMK AO2 SLP124 T02330228 10261 20233 58007
KVLD 220453Z AUTO 19004KT 10SM CLR 23/23 A2989 RMK AO2 SLP128 T02330228 403560222
KVLD 220353Z AUTO 18003KT 10SM CLR 24/23 A2991 RMK AO2 SLP133 T02390233
KVLD 220253Z AUTO 00000KT 10SM CLR 24/23 A2990 RMK AO2 SLP131 T02390233 50007
KVLD 220153Z AUTO 00000KT 10SM CLR 24/23 A2991 RMK AO2 SLP132 T02440233
KVLD 220053Z VRB03KT 10SM CLR 25/24 A2990 RMK AO2 LTG DSNT NW SLP129 T02500239
KVLD 220034Z 24003KT 10SM FEW050 26/24 A2989 RMK AO2 LTG DSNT E AND NW T02560244
KVLD 220008Z VRB03KT 6SM VCTS BR CLR 26/26 A2988 RMK AO2 LTG DSNT NE AND E AND W T02610256
KVLD 212353Z 20003KT 10SM CLR 26/25 A2988 RMK AO2 PK WND 01028/2308 LTG DSNT NE AND E AND W RAE30 TSE22 SLP124 P0034 60045 T02610250 10356 20239 51011
KVLD 212332Z 20003KT 10SM VCTS FEW025 SCT065 26/24 A2987 RMK AO2 PK WND 01028/2308 LTG DSNT ALQDS RAE30 TSE22 P0034 T02560244
KVLD 212325Z 20003KT 6SM -RA BR SCT029 BKN048 BKN065 26/24 A2987 RMK AO2 PK WND 01028/2308 LTG DSNT ALQDS TSE22 P0034 T02560244
KVLD 212319Z 00000KT 4SM TSRA SCT031 BKN048 OVC065 27/24 A2987 RMK AO2 PK WND 01028/2308 LTG DSNT E AND SW AND W P0034 T02670239
KVLD 212315Z 05006G28KT 1/2SM +TSRA SCT026 BKN048 OVC060 27/22 A2987 RMK AO2 PK WND 01028/2308 LTG DSNT E AND W P0034 T02720222
KVLD 212308Z 01021G28KT 1/4SM +TSRA SCT026 BKN048 OVC070 24/21 A2991 RMK AO2 PK WND 01028/2308 LTG DSNT E AND W PRESRR P0025 T02390211
KVLD 212300Z 25007KT 220V280 3SM -TSRA BR BKN050 26/24 A2988 RMK AO2 LTG DSNT E AND SW PRESRR P0000 T02560239
KVLD 212253Z 19012KT 1SM +TSRA BKN050 27/24 A2986 RMK AO2 LTG DSNT E AND SW AND NW RAB49 TSB34 SLP116 P0011 T02670239
KVLD 212249Z 1 1/2SM -TSRA SCT050 BKN110 29/24 A2986 RMK AO2 LTG DSNT E AND SW AND NW RAB49 TSB34 P0007
KVLD 212240Z 00000KT 10SM TS FEW055 FEW110 32/23 A2986 RMK AO2 LTG DSNT E AND SW AND NW TSB34 T03170233
KVLD 212153Z VRB03KT 10SM CLR 33/23 A2985 RMK AO2 LTG DSNT SW SLP113 T03330233
KVLD 212053Z VRB03KT 10SM CLR 34/23 A2985 RMK AO2 SLP114 T03440228 55017
KVLD 211953Z VRB05KT 10SM SCT050 34/24 A2985 RMK AO2 SLP113 T03440239
KVLD 211853Z VRB04KT 10SM CLR 34/23 A2987 RMK AO2 SLP120 T03440233
KVLD 211753Z VRB03KT 10SM FEW046 BKN060 BKN080 33/23 A2990 RMK AO2 SLP131 T03280233 10344 20261 58007
KVLD 211653Z VRB04KT 10SM FEW049 34/24 A2991 RMK AO2 SLP135 T03390239
KVLD 211553Z VRB05KT 10SM CLR 33/22 A2992 RMK AO2 SLP138 T03330222
KVLD 211453Z VRB03KT 10SM CLR 32/23 A2992 RMK AO2 SLP138 T03170228 50003
KVLD 211353Z 33004KT 10SM CLR 30/23 A2992 RMK AO2 SLP138 T03000233
KVLD 211253Z VRB04KT 10SM CLR 28/24 A2993 RMK AO2 SLP139 T02830239
KVLD 211153Z 00000KT 10SM CLR 26/24 A2991 RMK AO2 SLP135 70001 T02610239 10261 20222 52012